createdAt,value
2017-08-24T00:00:47.255Z,28.10
2017-08-24T00:03:14.849Z,35.10
2017-08-24T00:05:42.309Z,29.50
2017-08-24T00:08:09.787Z,30.97
2017-08-24T00:10:37.252Z,25.70
2017-08-24T00:13:04.832Z,24.90
2017-08-24T00:15:32.379Z,32.30
2017-08-24T00:17:59.935Z,21.47
2017-08-24T00:20:27.432Z,26.67
2017-08-24T00:22:54.901Z,25.33
2017-08-24T00:25:22.411Z,32.60
2017-08-24T00:27:49.877Z,31.03
2017-08-24T00:30:17.343Z,29.00
2017-08-24T00:32:44.883Z,23.00
2017-08-24T00:35:12.347Z,43.87
2017-08-24T00:37:39.826Z,37.33
2017-08-24T00:40:07.367Z,28.03
2017-08-24T00:42:34.923Z,32.37
2017-08-24T00:45:02.381Z,29.03
2017-08-24T00:47:29.907Z,33.70
2017-08-24T00:49:57.379Z,33.90
2017-08-24T00:52:24.855Z,29.80
2017-08-24T00:54:52.403Z,25.97
2017-08-24T00:57:19.967Z,28.33
2017-08-24T00:59:47.527Z,33.87
2017-08-24T01:02:15.031Z,29.63
2017-08-24T01:04:42.607Z,21.97
2017-08-24T01:07:10.098Z,22.33
2017-08-24T01:09:37.566Z,45.53
2017-08-24T01:12:05.035Z,18.47
2017-08-24T01:14:33.274Z,29.17
2017-08-24T01:17:00.743Z,26.33
2017-08-24T01:19:28.210Z,16.00
2017-08-24T01:21:56.453Z,19.53
2017-08-24T01:24:23.925Z,18.23
2017-08-24T01:26:51.394Z,18.87
2017-08-24T01:29:18.872Z,16.63
2017-08-24T01:31:46.356Z,29.30
2017-08-24T01:34:13.856Z,19.53
2017-08-24T01:36:41.336Z,22.10
2017-08-24T01:39:08.799Z,23.30
2017-08-24T01:41:37.028Z,18.47
2017-08-24T01:44:04.504Z,21.50
2017-08-24T01:46:31.965Z,17.23
2017-08-24T01:48:59.429Z,20.53
2017-08-24T01:51:26.927Z,16.57
2017-08-24T01:53:54.424Z,22.07
2017-08-24T01:56:21.880Z,23.27
2017-08-24T01:58:49.365Z,18.73
2017-08-24T02:01:16.821Z,17.60
2017-08-24T02:03:44.335Z,16.20
2017-08-24T02:06:11.816Z,22.20
2017-08-24T02:08:39.368Z,12.80
2017-08-24T02:11:06.830Z,19.73
2017-08-24T02:13:34.392Z,17.13
2017-08-24T02:16:01.849Z,23.40
2017-08-24T02:18:29.327Z,9.57
2017-08-24T02:20:57.551Z,17.70
2017-08-24T02:23:25.024Z,15.60
2017-08-24T02:25:53.303Z,9.93
2017-08-24T02:28:20.779Z,9.47
2017-08-24T02:30:48.234Z,9.23
2017-08-24T02:33:15.704Z,19.80
2017-08-24T02:35:43.201Z,13.20
2017-08-24T02:38:10.686Z,14.97
2017-08-24T02:40:38.167Z,18.43
2017-08-24T02:43:05.710Z,8.97
2017-08-24T02:45:33.273Z,11.80
2017-08-24T02:48:00.733Z,13.77
2017-08-24T02:50:28.230Z,15.47
2017-08-24T02:52:55.734Z,20.00
2017-08-24T02:55:23.349Z,16.07
2017-08-24T02:57:50.807Z,15.50
2017-08-24T03:00:18.300Z,14.13
2017-08-24T03:02:45.775Z,14.23
2017-08-24T03:05:13.253Z,12.60
2017-08-24T03:07:40.710Z,19.23
2017-08-24T03:10:08.954Z,12.20
2017-08-24T03:12:36.426Z,10.83
2017-08-24T03:15:03.909Z,12.40
2017-08-24T03:17:31.365Z,15.53
2017-08-24T03:19:58.882Z,12.17
2017-08-24T03:22:26.345Z,13.27
2017-08-24T03:24:53.808Z,20.17
2017-08-24T03:27:21.291Z,12.83
2017-08-24T03:29:48.752Z,13.00
2017-08-24T03:32:16.207Z,11.20
2017-08-24T03:34:43.753Z,19.90
2017-08-24T03:37:11.980Z,25.80
2017-08-24T03:39:39.436Z,18.20
2017-08-24T03:42:07.214Z,15.63
2017-08-24T03:44:34.675Z,10.53
2017-08-24T03:47:02.235Z,8.80
2017-08-24T03:49:29.697Z,10.93
2017-08-24T03:51:57.937Z,18.20
2017-08-24T03:54:25.430Z,12.07
2017-08-24T03:56:52.895Z,17.17
2017-08-24T03:59:21.162Z,13.07
2017-08-24T04:01:48.731Z,18.67
2017-08-24T04:04:16.281Z,13.17
2017-08-24T04:06:43.743Z,15.07
2017-08-24T04:09:11.296Z,14.50
2017-08-24T04:11:38.778Z,11.40
2017-08-24T04:14:06.307Z,7.83
2017-08-24T04:16:33.776Z,17.83
2017-08-24T04:19:01.247Z,18.70
2017-08-24T04:21:28.777Z,14.03
2017-08-24T04:23:56.231Z,8.03
2017-08-24T04:26:23.783Z,9.50
2017-08-24T04:28:51.243Z,14.90
2017-08-24T04:31:19.725Z,10.63
2017-08-24T04:33:47.292Z,14.50
2017-08-24T04:36:14.849Z,15.80
2017-08-24T04:38:42.424Z,14.73
2017-08-24T04:41:09.929Z,14.50
2017-08-24T04:43:37.436Z,13.00
2017-08-24T04:46:05.166Z,20.80
2017-08-24T04:48:32.616Z,15.13
2017-08-24T04:51:00.603Z,15.63
2017-08-24T04:53:28.884Z,12.33
2017-08-24T04:55:56.451Z,15.93
2017-08-24T04:58:23.944Z,15.23
2017-08-24T05:00:51.414Z,13.37
2017-08-24T05:03:18.890Z,17.63
2017-08-24T05:05:46.356Z,13.40
2017-08-24T05:08:13.923Z,15.00
2017-08-24T05:10:42.308Z,8.10
2017-08-24T05:13:09.884Z,12.43
2017-08-24T05:15:38.129Z,21.40
2017-08-24T05:18:05.702Z,15.73
2017-08-24T05:20:33.152Z,8.50
2017-08-24T05:23:00.727Z,20.33
2017-08-24T05:25:28.706Z,14.60
2017-08-24T05:27:56.964Z,20.03
2017-08-24T05:30:24.547Z,14.27
2017-08-24T05:32:52.773Z,16.97
2017-08-24T05:35:20.255Z,17.57
2017-08-24T05:37:48.090Z,13.23
2017-08-24T05:40:15.570Z,13.73
2017-08-24T05:42:43.031Z,22.50
2017-08-24T05:45:10.588Z,18.30
2017-08-24T05:47:38.835Z,25.27
2017-08-24T05:50:06.299Z,14.67
2017-08-24T05:52:33.773Z,12.73
2017-08-24T05:55:01.227Z,15.80
2017-08-24T05:57:28.696Z,15.67
2017-08-24T05:59:56.244Z,13.63
2017-08-24T06:02:23.709Z,11.30
2017-08-24T06:04:51.197Z,15.53
2017-08-24T06:07:18.728Z,13.43
2017-08-24T06:09:46.954Z,13.07
2017-08-24T06:12:14.410Z,14.50
2017-08-24T06:14:41.907Z,16.00
2017-08-24T06:17:09.382Z,15.67
2017-08-24T06:19:36.943Z,14.43
2017-08-24T06:22:04.424Z,14.17
2017-08-24T06:24:32.893Z,15.70
2017-08-24T06:27:00.410Z,9.50
2017-08-24T06:29:27.898Z,10.83
2017-08-24T06:31:55.436Z,13.70
2017-08-24T06:34:23.006Z,10.87
2017-08-24T06:36:50.488Z,17.17
2017-08-24T06:39:17.959Z,15.93
2017-08-24T06:41:45.919Z,13.93
2017-08-24T06:44:13.441Z,9.93
2017-08-24T06:46:40.960Z,19.33
2017-08-24T06:49:08.452Z,12.27
2017-08-24T06:51:35.916Z,14.10
2017-08-24T06:54:03.579Z,14.37
2017-08-24T06:56:31.818Z,15.70
2017-08-24T06:58:59.300Z,14.67
2017-08-24T07:01:26.815Z,16.07
2017-08-24T07:03:54.286Z,14.50
2017-08-24T07:06:21.765Z,10.90
2017-08-24T07:08:49.275Z,20.20
2017-08-24T07:11:16.780Z,14.67
2017-08-24T07:13:44.347Z,10.57
2017-08-24T07:16:11.808Z,7.13
2017-08-24T07:18:39.277Z,9.13
2017-08-24T07:21:06.828Z,15.23
2017-08-24T07:23:34.297Z,14.03
2017-08-24T07:26:02.574Z,13.57
2017-08-24T07:28:30.067Z,15.63
2017-08-24T07:30:57.563Z,18.43
2017-08-24T07:33:25.018Z,14.70
2017-08-24T07:35:52.471Z,18.43
2017-08-24T07:38:20.234Z,16.70
2017-08-24T07:40:47.707Z,21.63
2017-08-24T07:43:15.249Z,12.30
2017-08-24T07:45:42.812Z,22.67
2017-08-24T07:48:10.381Z,13.60
2017-08-24T07:50:38.457Z,12.83
2017-08-24T07:53:05.944Z,12.30
2017-08-24T07:55:33.423Z,7.60
2017-08-24T07:58:00.871Z,15.27
2017-08-24T08:00:28.404Z,12.87
2017-08-24T08:02:55.859Z,15.60
2017-08-24T08:05:23.382Z,14.43
2017-08-24T08:07:50.939Z,11.10
2017-08-24T08:10:18.404Z,12.27
2017-08-24T08:12:45.964Z,18.47
2017-08-24T08:15:13.432Z,9.80
2017-08-24T08:17:41.698Z,10.90
2017-08-24T08:20:09.883Z,11.17
2017-08-24T08:22:37.358Z,13.00
2017-08-24T08:25:04.885Z,12.13
2017-08-24T08:27:32.371Z,11.60
2017-08-24T08:29:59.891Z,9.13
2017-08-24T08:32:27.363Z,7.43
2017-08-24T08:34:54.911Z,13.30
2017-08-24T08:37:22.368Z,10.20
2017-08-24T08:39:49.918Z,9.43
2017-08-24T08:42:17.479Z,10.03
2017-08-24T08:44:45.024Z,6.70
2017-08-24T08:47:12.403Z,6.63
2017-08-24T08:49:39.963Z,5.60
2017-08-24T08:52:08.172Z,7.20
2017-08-24T08:54:35.638Z,11.07
2017-08-24T08:57:03.107Z,10.53
2017-08-24T08:59:30.599Z,5.83
2017-08-24T09:01:58.071Z,10.83
2017-08-24T09:04:25.779Z,8.73
2017-08-24T09:06:53.272Z,10.37
2017-08-24T09:09:20.730Z,6.03
2017-08-24T09:11:56.263Z,4.17
2017-08-24T09:14:23.731Z,13.23
2017-08-24T09:16:51.191Z,7.63
2017-08-24T09:19:18.662Z,6.97
2017-08-24T09:21:46.118Z,8.20
2017-08-24T09:24:13.580Z,9.10
2017-08-24T09:26:41.051Z,12.37
2017-08-24T09:29:09.275Z,11.07
2017-08-24T09:31:36.743Z,10.93
2017-08-24T09:34:04.339Z,4.50
2017-08-24T09:36:31.862Z,7.20
2017-08-24T09:38:59.375Z,6.50
2017-08-24T09:41:26.847Z,11.03
2017-08-24T09:43:54.338Z,7.67
2017-08-24T09:46:21.802Z,6.73
2017-08-24T09:48:49.286Z,8.13
2017-08-24T09:51:16.803Z,2.40
2017-08-24T09:53:44.371Z,10.00
2017-08-24T09:56:11.835Z,4.73
2017-08-24T09:58:39.308Z,6.90
2017-08-24T10:01:06.812Z,5.97
2017-08-24T10:03:34.287Z,5.70
2017-08-24T10:06:01.857Z,12.47
2017-08-24T10:08:29.387Z,3.37
2017-08-24T10:10:56.860Z,6.10
2017-08-24T10:13:24.315Z,6.93
2017-08-24T10:15:51.801Z,10.43
2017-08-24T10:18:19.807Z,5.30
2017-08-24T10:20:47.341Z,4.57
2017-08-24T10:23:15.623Z,4.30
2017-08-24T10:25:43.147Z,3.63
2017-08-24T10:28:10.700Z,5.10
2017-08-24T10:30:38.987Z,3.33
2017-08-24T10:33:06.475Z,4.63
2017-08-24T10:35:33.972Z,8.37
2017-08-24T10:38:01.440Z,6.30
2017-08-24T10:40:29.747Z,5.50
2017-08-24T10:42:57.212Z,7.20
2017-08-24T10:45:24.748Z,7.63
2017-08-24T10:47:52.227Z,2.40
2017-08-24T10:50:19.688Z,3.77
2017-08-24T10:52:47.215Z,2.60
2017-08-24T10:55:14.684Z,6.43
2017-08-24T10:57:42.216Z,5.87
2017-08-24T11:00:10.699Z,3.17
2017-08-24T11:02:38.265Z,3.73
2017-08-24T11:05:05.795Z,6.83
2017-08-24T11:07:33.286Z,4.50
2017-08-24T11:10:00.847Z,7.03
2017-08-24T11:12:28.424Z,5.27
2017-08-24T11:14:55.956Z,2.90
2017-08-24T11:17:23.445Z,5.63
2017-08-24T11:19:50.907Z,6.80
2017-08-24T11:22:18.360Z,5.73
2017-08-24T11:24:45.834Z,10.00
2017-08-24T11:27:13.283Z,5.83
2017-08-24T11:29:40.827Z,5.63
2017-08-24T11:32:08.300Z,7.87
2017-08-24T11:34:35.768Z,6.10
2017-08-24T11:37:03.263Z,5.90
2017-08-24T11:39:30.745Z,12.70
2017-08-24T11:41:58.224Z,7.03
2017-08-24T11:44:25.680Z,2.83
2017-08-24T11:46:53.170Z,7.27
2017-08-24T11:49:21.152Z,3.30
2017-08-24T11:51:48.613Z,4.70
2017-08-24T11:54:16.083Z,3.70
2017-08-24T11:56:43.562Z,4.97
2017-08-24T11:59:11.054Z,4.80
2017-08-24T12:01:38.513Z,4.70
2017-08-24T12:04:05.975Z,4.23
2017-08-24T12:06:33.455Z,7.80
2017-08-24T12:09:01.026Z,3.80
2017-08-24T12:11:29.493Z,5.23
2017-08-24T12:13:57.227Z,4.53
2017-08-24T12:16:24.710Z,5.40
2017-08-24T12:18:52.189Z,7.97
2017-08-24T12:21:19.690Z,4.10
2017-08-24T12:23:47.143Z,5.50
2017-08-24T12:26:14.611Z,6.07
2017-08-24T12:28:42.083Z,2.03
2017-08-24T12:31:09.861Z,3.47
2017-08-24T12:33:37.325Z,4.57
2017-08-24T12:36:04.788Z,7.10
2017-08-24T12:38:32.259Z,5.67
2017-08-24T12:40:59.736Z,7.57
2017-08-24T12:43:27.215Z,5.67
2017-08-24T12:45:54.679Z,2.53
2017-08-24T12:48:22.141Z,4.33
2017-08-24T12:50:49.884Z,5.83
2017-08-24T12:53:17.360Z,3.07
2017-08-24T12:55:44.848Z,2.90
2017-08-24T12:58:12.369Z,6.83
2017-08-24T13:00:39.844Z,4.03
2017-08-24T13:03:07.320Z,3.53
2017-08-24T13:05:34.780Z,3.80
2017-08-24T13:08:02.333Z,5.60
2017-08-24T13:10:29.823Z,7.87
2017-08-24T13:12:57.347Z,3.37
2017-08-24T13:15:24.909Z,4.83
2017-08-24T13:17:52.371Z,4.80
2017-08-24T13:20:19.921Z,6.17
2017-08-24T13:22:47.387Z,3.70
2017-08-24T13:25:15.666Z,3.40
2017-08-24T13:27:43.216Z,3.60
2017-08-24T13:30:11.668Z,5.07
2017-08-24T13:32:39.128Z,4.87
2017-08-24T13:35:06.595Z,8.70
2017-08-24T13:37:34.064Z,6.93
2017-08-24T13:40:01.620Z,3.47
2017-08-24T13:42:29.171Z,5.50
2017-08-24T13:44:56.639Z,3.20
2017-08-24T13:47:24.107Z,4.97
2017-08-24T13:49:52.966Z,5.97
2017-08-24T13:52:20.564Z,4.60
2017-08-24T13:54:48.032Z,3.87
2017-08-24T13:57:15.508Z,7.07
2017-08-24T13:59:42.975Z,8.10
2017-08-24T14:02:10.440Z,3.57
2017-08-24T14:04:37.929Z,5.10
2017-08-24T14:07:05.395Z,6.37
2017-08-24T14:09:32.875Z,5.23
2017-08-24T14:12:00.396Z,11.83
2017-08-24T14:14:27.867Z,3.80
2017-08-24T14:16:55.328Z,4.73
2017-08-24T14:19:22.926Z,5.13
2017-08-24T14:21:50.928Z,4.00
2017-08-24T14:24:18.396Z,2.70
2017-08-24T14:26:45.888Z,6.77
2017-08-24T14:29:14.322Z,4.33
2017-08-24T14:31:41.792Z,6.10
2017-08-24T14:34:09.351Z,8.53
2017-08-24T14:36:36.821Z,3.23
2017-08-24T14:39:04.289Z,7.50
2017-08-24T14:41:31.787Z,4.87
2017-08-24T14:43:59.255Z,2.67
2017-08-24T14:46:26.729Z,5.77
2017-08-24T14:48:54.194Z,4.30
2017-08-24T14:51:21.746Z,5.13
2017-08-24T14:53:49.301Z,3.83
2017-08-24T14:56:16.863Z,3.10
2017-08-24T14:58:44.440Z,2.20
2017-08-24T15:01:12.084Z,3.50
2017-08-24T15:03:39.582Z,3.50
2017-08-24T15:06:07.103Z,8.33
2017-08-24T15:08:34.664Z,4.73
2017-08-24T15:11:02.136Z,5.50
2017-08-24T15:13:30.483Z,2.20
2017-08-24T15:15:57.953Z,2.50
2017-08-24T15:18:25.422Z,5.57
2017-08-24T15:20:52.910Z,3.63
2017-08-24T15:23:20.425Z,5.40
2017-08-24T15:25:47.984Z,5.43
2017-08-24T15:28:15.454Z,7.73
2017-08-24T15:30:42.983Z,4.83
2017-08-24T15:33:10.470Z,8.13
2017-08-24T15:35:37.958Z,3.57
2017-08-24T15:38:05.434Z,3.50
2017-08-24T15:40:32.923Z,2.40
2017-08-24T15:43:00.387Z,3.00
2017-08-24T15:45:27.888Z,9.60
2017-08-24T15:47:55.381Z,1.87
2017-08-24T15:50:22.888Z,3.10
2017-08-24T15:52:50.415Z,7.77
2017-08-24T15:55:18.141Z,3.23
2017-08-24T15:57:45.639Z,4.90
2017-08-24T16:00:13.158Z,5.27
2017-08-24T16:02:40.648Z,5.20
2017-08-24T16:05:08.131Z,5.30
2017-08-24T16:07:35.598Z,2.67
2017-08-24T16:10:03.088Z,4.20
2017-08-24T16:12:30.568Z,4.03
2017-08-24T16:14:58.094Z,2.67
2017-08-24T16:17:25.605Z,3.50
2017-08-24T16:19:53.653Z,4.57
2017-08-24T16:22:21.146Z,3.60
2017-08-24T16:24:49.040Z,2.97
2017-08-24T16:27:16.519Z,7.33
2017-08-24T16:29:44.026Z,2.40
2017-08-24T16:32:11.493Z,4.20
2017-08-24T16:34:38.964Z,6.57
2017-08-24T16:37:06.443Z,2.70
2017-08-24T16:39:34.022Z,2.50
2017-08-24T16:42:01.493Z,6.10
2017-08-24T16:44:28.994Z,3.90
2017-08-24T16:46:56.516Z,3.43
2017-08-24T16:49:24.053Z,5.33
2017-08-24T16:51:51.656Z,7.40
2017-08-24T16:54:19.186Z,2.30
2017-08-24T16:56:46.732Z,2.17
2017-08-24T16:59:14.226Z,2.30
2017-08-24T17:01:41.739Z,1.13
2017-08-24T17:04:09.300Z,2.43
2017-08-24T17:06:36.768Z,2.37
2017-08-24T17:09:04.236Z,1.90
2017-08-24T17:11:32.829Z,4.00
2017-08-24T17:14:00.307Z,7.20
2017-08-24T17:16:27.784Z,2.80
2017-08-24T17:18:55.267Z,2.60
2017-08-24T17:21:22.744Z,4.93
2017-08-24T17:23:50.984Z,8.77
2017-08-24T17:26:18.451Z,8.43
2017-08-24T17:28:46.170Z,5.40
2017-08-24T17:31:13.684Z,6.03
2017-08-24T17:33:41.264Z,4.10
2017-08-24T17:36:09.495Z,2.90
2017-08-24T17:38:36.972Z,2.50
2017-08-24T17:41:04.540Z,3.07
2017-08-24T17:43:32.811Z,1.73
2017-08-24T17:46:00.288Z,2.97
2017-08-24T17:48:27.759Z,2.60
2017-08-24T17:50:55.228Z,4.80
2017-08-24T17:53:22.827Z,1.93
2017-08-24T17:55:50.299Z,2.63
2017-08-24T17:58:17.768Z,3.47
2017-08-24T18:00:45.328Z,3.70
2017-08-24T18:03:12.896Z,1.90
2017-08-24T18:05:40.419Z,1.27
2017-08-24T18:08:08.700Z,7.50
2017-08-24T18:10:36.171Z,1.60
2017-08-24T18:13:03.716Z,3.27
2017-08-24T18:15:31.180Z,2.60
2017-08-24T18:17:58.731Z,5.30
2017-08-24T18:20:26.604Z,2.07
2017-08-24T18:22:54.059Z,3.00
2017-08-24T18:25:21.619Z,5.27
2017-08-24T18:27:49.186Z,2.83
2017-08-24T18:30:17.450Z,4.87
2017-08-24T18:32:44.940Z,3.23
2017-08-24T18:35:12.399Z,7.87
2017-08-24T18:37:39.900Z,3.17
2017-08-24T18:40:07.375Z,3.50
2017-08-24T18:42:34.875Z,2.10
2017-08-24T18:45:02.344Z,2.83
2017-08-24T18:47:29.842Z,4.23
2017-08-24T18:49:57.305Z,1.73
2017-08-24T18:52:24.783Z,3.23
2017-08-24T18:54:53.122Z,4.90
2017-08-24T18:57:20.583Z,3.43
2017-08-24T18:59:48.099Z,2.93
2017-08-24T19:02:15.578Z,3.00
2017-08-24T19:04:43.079Z,7.23
2017-08-24T19:07:10.540Z,3.97
2017-08-24T19:09:38.009Z,6.37
2017-08-24T19:12:05.496Z,3.67
2017-08-24T19:14:32.993Z,3.77
2017-08-24T19:17:00.549Z,4.87
2017-08-24T19:19:28.012Z,6.73
2017-08-24T19:21:55.788Z,4.47
2017-08-24T19:24:23.277Z,3.30
2017-08-24T19:26:50.795Z,5.83
2017-08-24T19:29:18.289Z,9.60
2017-08-24T19:31:45.811Z,4.57
2017-08-24T19:34:14.107Z,5.60
2017-08-24T19:36:41.612Z,1.23
2017-08-24T19:39:09.425Z,3.30
2017-08-24T19:41:36.903Z,3.17
2017-08-24T19:44:04.411Z,3.33
2017-08-24T19:46:31.979Z,2.00
2017-08-24T19:49:00.242Z,3.10
2017-08-24T19:51:27.827Z,5.57
2017-08-24T19:53:55.346Z,7.00
2017-08-24T19:56:22.805Z,6.83
2017-08-24T19:58:50.286Z,4.40
2017-08-24T20:01:18.525Z,5.57
2017-08-24T20:03:46.010Z,7.30
2017-08-24T20:06:14.281Z,3.47
2017-08-24T20:08:41.749Z,5.97
2017-08-24T20:11:09.220Z,6.10
2017-08-24T20:13:37.471Z,4.20
2017-08-24T20:16:04.936Z,4.30
2017-08-24T20:18:32.484Z,2.73
2017-08-24T20:20:59.935Z,6.00
2017-08-24T20:23:27.729Z,5.83
2017-08-24T20:25:56.002Z,4.03
2017-08-24T20:28:23.459Z,3.30
2017-08-24T20:30:51.827Z,10.77
2017-08-24T20:33:20.167Z,3.30
2017-08-24T20:35:47.626Z,5.63
2017-08-24T20:38:15.223Z,8.13
2017-08-24T20:40:43.475Z,8.00
2017-08-24T20:43:11.049Z,6.13
2017-08-24T20:45:38.583Z,6.97
2017-08-24T20:48:06.068Z,5.97
2017-08-24T20:50:34.573Z,5.97
2017-08-24T20:53:02.056Z,14.17
2017-08-24T20:55:29.560Z,5.43
2017-08-24T20:57:57.026Z,6.90
2017-08-24T21:00:24.568Z,2.30
2017-08-24T21:02:52.031Z,6.53
2017-08-24T21:05:19.579Z,3.43
2017-08-24T21:07:47.124Z,3.77
2017-08-24T21:10:15.564Z,5.10
2017-08-24T21:12:43.018Z,3.80
2017-08-24T21:15:10.504Z,4.70
2017-08-24T21:17:38.042Z,5.50
2017-08-24T21:20:05.515Z,6.40
2017-08-24T21:22:33.363Z,5.80
2017-08-24T21:25:00.872Z,4.20
2017-08-24T21:27:28.323Z,5.33
2017-08-24T21:29:55.804Z,8.37
2017-08-24T21:32:23.293Z,4.83
2017-08-24T21:34:50.812Z,7.37
2017-08-24T21:37:18.279Z,2.03
2017-08-24T21:39:45.770Z,5.53
2017-08-24T21:42:13.652Z,6.23
2017-08-24T21:44:41.132Z,8.10
2017-08-24T21:47:08.659Z,4.13
2017-08-24T21:49:36.152Z,11.60
2017-08-24T21:52:03.743Z,11.40
2017-08-24T21:54:32.186Z,7.20
2017-08-24T21:56:59.681Z,4.93
2017-08-24T21:59:27.158Z,9.00
2017-08-24T22:01:55.360Z,7.47
2017-08-24T22:04:22.868Z,7.17
2017-08-24T22:06:50.348Z,7.43
2017-08-24T22:09:17.895Z,10.83
2017-08-24T22:11:45.593Z,5.10
2017-08-24T22:14:13.058Z,7.63
2017-08-24T22:16:40.536Z,7.00
2017-08-24T22:19:08.004Z,14.97
2017-08-24T22:21:36.218Z,6.97
2017-08-24T22:24:03.675Z,7.50
2017-08-24T22:26:31.183Z,6.07
2017-08-24T22:28:58.634Z,5.70
2017-08-24T22:31:26.253Z,5.40
2017-08-24T22:33:53.770Z,5.47
2017-08-24T22:36:21.313Z,3.00
2017-08-24T22:38:48.771Z,8.70
2017-08-24T22:41:16.320Z,4.23
2017-08-24T22:43:43.975Z,7.60
2017-08-24T22:46:11.542Z,7.47
2017-08-24T22:48:39.231Z,5.20
2017-08-24T22:51:06.762Z,6.27
2017-08-24T22:53:40.036Z,4.60
2017-08-24T22:56:13.307Z,8.67
2017-08-24T22:58:46.508Z,3.50
2017-08-24T23:01:19.792Z,12.30
2017-08-24T23:03:52.923Z,4.37
2017-08-24T23:06:20.380Z,6.07
2017-08-24T23:08:47.852Z,4.10
2017-08-24T23:11:16.099Z,14.07
2017-08-24T23:13:43.550Z,8.23
2017-08-24T23:16:11.027Z,2.80
2017-08-24T23:18:38.491Z,11.93
2017-08-24T23:21:05.952Z,10.70
2017-08-24T23:23:33.528Z,13.03
2017-08-24T23:26:01.007Z,9.00
2017-08-24T23:28:28.472Z,4.60
2017-08-24T23:30:55.927Z,9.80
2017-08-24T23:33:23.408Z,11.43
2017-08-24T23:35:50.867Z,9.77
2017-08-24T23:38:18.345Z,5.47
2017-08-24T23:40:46.204Z,6.43
2017-08-24T23:43:13.790Z,6.90
2017-08-24T23:45:41.247Z,10.57
2017-08-24T23:48:08.721Z,11.43
2017-08-24T23:50:36.807Z,6.30
2017-08-24T23:53:04.300Z,5.90
2017-08-24T23:55:31.772Z,7.50
2017-08-24T23:57:59.234Z,8.57
